sensor_id;sensor_type;location;lat;lon;timestamp;P1;durP1;ratioP1;P2;durP2;ratioP2
37299;SDS011;23184;51.902;12.836;2024-02-28T00:00:49;28.70;;;12.80;;
37299;SDS011;23184;51.902;12.836;2024-02-28T00:03:16;31.10;;;13.77;;
37299;SDS011;23184;51.902;12.836;2024-02-28T00:05:42;28.17;;;13.88;;
37299;SDS011;23184;51.902;12.836;2024-02-28T00:08:07;29.17;;;13.57;;
37299;SDS011;23184;51.902;12.836;2024-02-28T00:10:33;28.40;;;13.85;;
37299;SDS011;23184;51.902;12.836;2024-02-28T00:12:59;30.75;;;14.57;;
37299;SDS011;23184;51.902;12.836;2024-02-28T00:15:24;34.22;;;14.35;;
37299;SDS011;23184;51.902;12.836;2024-02-28T00:17:51;31.35;;;13.70;;
37299;SDS011;23184;51.902;12.836;2024-02-28T00:20:17;34.20;;;16.15;;
37299;SDS011;23184;51.902;12.836;2024-02-28T00:22:43;30.38;;;13.68;;
37299;SDS011;23184;51.902;12.836;2024-02-28T00:25:09;29.98;;;13.93;;
37299;SDS011;23184;51.902;12.836;2024-02-28T00:27:36;30.48;;;13.82;;
37299;SDS011;23184;51.902;12.836;2024-02-28T00:30:02;29.25;;;13.27;;
37299;SDS011;23184;51.902;12.836;2024-02-28T00:32:31;31.70;;;14.73;;
37299;SDS011;23184;51.902;12.836;2024-02-28T00:34:57;28.20;;;13.43;;
37299;SDS011;23184;51.902;12.836;2024-02-28T00:37:22;30.58;;;13.02;;
37299;SDS011;23184;51.902;12.836;2024-02-28T00:39:49;31.17;;;13.70;;
37299;SDS011;23184;51.902;12.836;2024-02-28T00:42:15;30.35;;;14.07;;
37299;SDS011;23184;51.902;12.836;2024-02-28T00:44:41;35.33;;;15.43;;
37299;SDS011;23184;51.902;12.836;2024-02-28T00:47:07;27.58;;;14.25;;
37299;SDS011;23184;51.902;12.836;2024-02-28T00:49:33;31.40;;;13.77;;
37299;SDS011;23184;51.902;12.836;2024-02-28T00:51:59;31.90;;;15.05;;
37299;SDS011;23184;51.902;12.836;2024-02-28T00:54:25;29.95;;;14.18;;
37299;SDS011;23184;51.902;12.836;2024-02-28T00:56:51;32.58;;;14.43;;
37299;SDS011;23184;51.902;12.836;2024-02-28T00:59:16;30.65;;;14.60;;
37299;SDS011;23184;51.902;12.836;2024-02-28T01:01:42;33.50;;;15.15;;
37299;SDS011;23184;51.902;12.836;2024-02-28T01:04:07;33.28;;;15.38;;
37299;SDS011;23184;51.902;12.836;2024-02-28T01:06:33;28.05;;;13.85;;
37299;SDS011;23184;51.902;12.836;2024-02-28T01:08:58;30.40;;;14.07;;
37299;SDS011;23184;51.902;12.836;2024-02-28T01:11:24;27.67;;;13.98;;
37299;SDS011;23184;51.902;12.836;2024-02-28T01:13:50;34.55;;;15.73;;
37299;SDS011;23184;51.902;12.836;2024-02-28T01:16:15;35.42;;;15.27;;
37299;SDS011;23184;51.902;12.836;2024-02-28T01:18:41;33.25;;;15.18;;
37299;SDS011;23184;51.902;12.836;2024-02-28T01:21:07;29.55;;;13.52;;
37299;SDS011;23184;51.902;12.836;2024-02-28T01:23:32;29.25;;;13.30;;
37299;SDS011;23184;51.902;12.836;2024-02-28T01:25:58;29.08;;;13.70;;
37299;SDS011;23184;51.902;12.836;2024-02-28T01:28:24;31.80;;;15.13;;
37299;SDS011;23184;51.902;12.836;2024-02-28T01:30:49;31.33;;;14.65;;
37299;SDS011;23184;51.902;12.836;2024-02-28T01:33:14;32.38;;;14.55;;
37299;SDS011;23184;51.902;12.836;2024-02-28T01:35:40;36.20;;;15.77;;
37299;SDS011;23184;51.902;12.836;2024-02-28T01:38:06;32.78;;;15.68;;
37299;SDS011;23184;51.902;12.836;2024-02-28T01:40:31;34.97;;;14.80;;
37299;SDS011;23184;51.902;12.836;2024-02-28T01:43:09;38.17;;;15.48;;
37299;SDS011;23184;51.902;12.836;2024-02-28T01:45:36;32.47;;;14.00;;
37299;SDS011;23184;51.902;12.836;2024-02-28T01:48:01;32.25;;;14.27;;
37299;SDS011;23184;51.902;12.836;2024-02-28T01:50:27;35.33;;;15.35;;
37299;SDS011;23184;51.902;12.836;2024-02-28T01:52:53;32.63;;;14.80;;
37299;SDS011;23184;51.902;12.836;2024-02-28T01:55:19;35.13;;;15.23;;
37299;SDS011;23184;51.902;12.836;2024-02-28T01:57:44;34.33;;;14.93;;
37299;SDS011;23184;51.902;12.836;2024-02-28T02:00:10;37.83;;;15.38;;
37299;SDS011;23184;51.902;12.836;2024-02-28T02:02:36;38.10;;;16.30;;
37299;SDS011;23184;51.902;12.836;2024-02-28T02:05:02;37.33;;;16.17;;
37299;SDS011;23184;51.902;12.836;2024-02-28T02:07:28;35.83;;;16.08;;
37299;SDS011;23184;51.902;12.836;2024-02-28T02:09:54;40.10;;;17.48;;
37299;SDS011;23184;51.902;12.836;2024-02-28T02:12:21;36.90;;;16.58;;
37299;SDS011;23184;51.902;12.836;2024-02-28T02:14:47;42.30;;;17.42;;
37299;SDS011;23184;51.902;12.836;2024-02-28T02:17:13;42.53;;;17.08;;
37299;SDS011;23184;51.902;12.836;2024-02-28T02:19:39;39.78;;;17.10;;
37299;SDS011;23184;51.902;12.836;2024-02-28T02:22:05;39.95;;;17.55;;
37299;SDS011;23184;51.902;12.836;2024-02-28T02:24:32;41.30;;;17.05;;
37299;SDS011;23184;51.902;12.836;2024-02-28T02:26:58;41.00;;;16.42;;
37299;SDS011;23184;51.902;12.836;2024-02-28T02:29:23;40.33;;;17.05;;
37299;SDS011;23184;51.902;12.836;2024-02-28T02:31:49;36.50;;;16.38;;
37299;SDS011;23184;51.902;12.836;2024-02-28T02:34:14;37.63;;;15.43;;
37299;SDS011;23184;51.902;12.836;2024-02-28T02:36:40;40.08;;;16.27;;
37299;SDS011;23184;51.902;12.836;2024-02-28T02:39:05;39.15;;;15.43;;
37299;SDS011;23184;51.902;12.836;2024-02-28T02:41:33;38.60;;;16.13;;
37299;SDS011;23184;51.902;12.836;2024-02-28T02:43:58;41.45;;;17.17;;
37299;SDS011;23184;51.902;12.836;2024-02-28T02:46:24;33.45;;;15.05;;
37299;SDS011;23184;51.902;12.836;2024-02-28T02:48:49;39.70;;;17.02;;
37299;SDS011;23184;51.902;12.836;2024-02-28T02:51:15;41.83;;;16.17;;
37299;SDS011;23184;51.902;12.836;2024-02-28T02:53:42;42.97;;;17.50;;
37299;SDS011;23184;51.902;12.836;2024-02-28T02:56:08;41.70;;;18.88;;
37299;SDS011;23184;51.902;12.836;2024-02-28T02:58:33;49.50;;;18.92;;
37299;SDS011;23184;51.902;12.836;2024-02-28T03:00:59;49.33;;;18.48;;
37299;SDS011;23184;51.902;12.836;2024-02-28T03:03:24;51.28;;;18.30;;
37299;SDS011;23184;51.902;12.836;2024-02-28T03:05:49;47.13;;;20.15;;
37299;SDS011;23184;51.902;12.836;2024-02-28T03:08:15;46.53;;;20.33;;
37299;SDS011;23184;51.902;12.836;2024-02-28T03:10:40;52.42;;;17.98;;
37299;SDS011;23184;51.902;12.836;2024-02-28T03:13:06;47.92;;;19.95;;
37299;SDS011;23184;51.902;12.836;2024-02-28T03:15:32;54.97;;;20.63;;
37299;SDS011;23184;51.902;12.836;2024-02-28T03:17:58;48.15;;;19.30;;
37299;SDS011;23184;51.902;12.836;2024-02-28T03:20:23;46.72;;;20.10;;
37299;SDS011;23184;51.902;12.836;2024-02-28T03:22:49;48.92;;;18.38;;
37299;SDS011;23184;51.902;12.836;2024-02-28T03:25:14;42.22;;;17.63;;
37299;SDS011;23184;51.902;12.836;2024-02-28T03:27:40;44.25;;;18.90;;
37299;SDS011;23184;51.902;12.836;2024-02-28T03:30:05;44.17;;;18.52;;
37299;SDS011;23184;51.902;12.836;2024-02-28T03:32:31;46.05;;;17.80;;
37299;SDS011;23184;51.902;12.836;2024-02-28T03:34:57;42.95;;;18.13;;
37299;SDS011;23184;51.902;12.836;2024-02-28T03:37:22;41.92;;;16.70;;
37299;SDS011;23184;51.902;12.836;2024-02-28T03:39:48;36.75;;;15.48;;
37299;SDS011;23184;51.902;12.836;2024-02-28T03:42:13;35.33;;;15.80;;
37299;SDS011;23184;51.902;12.836;2024-02-28T03:44:38;36.08;;;14.70;;
37299;SDS011;23184;51.902;12.836;2024-02-28T03:47:04;34.30;;;15.00;;
37299;SDS011;23184;51.902;12.836;2024-02-28T03:49:29;35.28;;;14.70;;
37299;SDS011;23184;51.902;12.836;2024-02-28T03:51:55;37.25;;;15.77;;
37299;SDS011;23184;51.902;12.836;2024-02-28T03:54:20;36.47;;;14.43;;
37299;SDS011;23184;51.902;12.836;2024-02-28T03:56:46;34.72;;;15.30;;
37299;SDS011;23184;51.902;12.836;2024-02-28T03:59:11;32.08;;;14.75;;
37299;SDS011;23184;51.902;12.836;2024-02-28T04:01:37;33.22;;;15.45;;
37299;SDS011;23184;51.902;12.836;2024-02-28T04:04:02;32.58;;;14.65;;
37299;SDS011;23184;51.902;12.836;2024-02-28T04:06:28;34.55;;;15.27;;
37299;SDS011;23184;51.902;12.836;2024-02-28T04:08:53;38.28;;;16.10;;
37299;SDS011;23184;51.902;12.836;2024-02-28T04:11:19;37.97;;;15.55;;
37299;SDS011;23184;51.902;12.836;2024-02-28T04:13:45;31.92;;;14.27;;
37299;SDS011;23184;51.902;12.836;2024-02-28T04:16:10;30.60;;;13.82;;
37299;SDS011;23184;51.902;12.836;2024-02-28T04:18:36;29.00;;;13.15;;
37299;SDS011;23184;51.902;12.836;2024-02-28T04:21:02;28.85;;;12.68;;
37299;SDS011;23184;51.902;12.836;2024-02-28T04:23:27;27.75;;;11.90;;
37299;SDS011;23184;51.902;12.836;2024-02-28T04:25:53;30.67;;;12.57;;
37299;SDS011;23184;51.902;12.836;2024-02-28T04:28:18;26.40;;;12.05;;
37299;SDS011;23184;51.902;12.836;2024-02-28T04:30:44;25.75;;;11.98;;
37299;SDS011;23184;51.902;12.836;2024-02-28T04:33:09;25.35;;;11.38;;
37299;SDS011;23184;51.902;12.836;2024-02-28T04:35:35;23.73;;;10.73;;
37299;SDS011;23184;51.902;12.836;2024-02-28T04:38:00;22.33;;;10.40;;
37299;SDS011;23184;51.902;12.836;2024-02-28T04:40:26;25.38;;;10.23;;
37299;SDS011;23184;51.902;12.836;2024-02-28T04:42:51;24.08;;;10.02;;
37299;SDS011;23184;51.902;12.836;2024-02-28T04:45:17;21.40;;;9.90;;
37299;SDS011;23184;51.902;12.836;2024-02-28T04:47:42;23.58;;;10.25;;
37299;SDS011;23184;51.902;12.836;2024-02-28T04:50:09;25.83;;;10.52;;
37299;SDS011;23184;51.902;12.836;2024-02-28T04:52:34;23.42;;;10.38;;
37299;SDS011;23184;51.902;12.836;2024-02-28T04:55:00;20.98;;;10.18;;
37299;SDS011;23184;51.902;12.836;2024-02-28T04:57:26;21.92;;;9.57;;
37299;SDS011;23184;51.902;12.836;2024-02-28T04:59:52;21.92;;;9.90;;
37299;SDS011;23184;51.902;12.836;2024-02-28T05:02:18;21.75;;;9.45;;
37299;SDS011;23184;51.902;12.836;2024-02-28T05:04:44;23.55;;;11.10;;
37299;SDS011;23184;51.902;12.836;2024-02-28T05:07:09;20.58;;;9.63;;
37299;SDS011;23184;51.902;12.836;2024-02-28T05:09:35;20.60;;;9.90;;
37299;SDS011;23184;51.902;12.836;2024-02-28T05:12:01;21.67;;;9.65;;
37299;SDS011;23184;51.902;12.836;2024-02-28T05:14:27;21.88;;;9.27;;
37299;SDS011;23184;51.902;12.836;2024-02-28T05:16:52;17.00;;;8.63;;
37299;SDS011;23184;51.902;12.836;2024-02-28T05:19:18;20.27;;;8.68;;
37299;SDS011;23184;51.902;12.836;2024-02-28T05:21:43;17.77;;;8.93;;
37299;SDS011;23184;51.902;12.836;2024-02-28T05:24:09;21.55;;;8.50;;
37299;SDS011;23184;51.902;12.836;2024-02-28T05:26:35;17.55;;;8.85;;
37299;SDS011;23184;51.902;12.836;2024-02-28T05:29:02;17.67;;;8.40;;
37299;SDS011;23184;51.902;12.836;2024-02-28T05:31:28;16.27;;;7.93;;
37299;SDS011;23184;51.902;12.836;2024-02-28T05:33:55;17.23;;;7.95;;
37299;SDS011;23184;51.902;12.836;2024-02-28T05:36:25;19.70;;;8.15;;
37299;SDS011;23184;51.902;12.836;2024-02-28T05:38:51;17.80;;;8.48;;
37299;SDS011;23184;51.902;12.836;2024-02-28T05:41:19;20.40;;;8.27;;
37299;SDS011;23184;51.902;12.836;2024-02-28T05:43:44;21.48;;;8.65;;
37299;SDS011;23184;51.902;12.836;2024-02-28T05:46:11;18.98;;;8.52;;
37299;SDS011;23184;51.902;12.836;2024-02-28T05:48:36;21.10;;;9.55;;
37299;SDS011;23184;51.902;12.836;2024-02-28T05:51:02;21.63;;;9.80;;
37299;SDS011;23184;51.902;12.836;2024-02-28T05:53:28;23.90;;;10.30;;
37299;SDS011;23184;51.902;12.836;2024-02-28T05:55:57;27.45;;;12.55;;
37299;SDS011;23184;51.902;12.836;2024-02-28T05:58:23;26.05;;;10.77;;
37299;SDS011;23184;51.902;12.836;2024-02-28T06:00:50;25.30;;;11.15;;
37299;SDS011;23184;51.902;12.836;2024-02-28T06:03:15;32.30;;;15.00;;
37299;SDS011;23184;51.902;12.836;2024-02-28T06:05:41;31.40;;;13.30;;
37299;SDS011;23184;51.902;12.836;2024-02-28T06:08:07;32.70;;;13.10;;
37299;SDS011;23184;51.902;12.836;2024-02-28T06:10:32;32.22;;;12.98;;
37299;SDS011;23184;51.902;12.836;2024-02-28T06:12:57;33.53;;;14.02;;
37299;SDS011;23184;51.902;12.836;2024-02-28T06:15:23;32.08;;;13.82;;
37299;SDS011;23184;51.902;12.836;2024-02-28T06:17:49;31.83;;;13.63;;
37299;SDS011;23184;51.902;12.836;2024-02-28T06:20:14;32.58;;;13.65;;
37299;SDS011;23184;51.902;12.836;2024-02-28T06:22:40;34.13;;;13.45;;
37299;SDS011;23184;51.902;12.836;2024-02-28T06:25:06;31.50;;;12.55;;
37299;SDS011;23184;51.902;12.836;2024-02-28T06:27:38;29.57;;;13.20;;
37299;SDS011;23184;51.902;12.836;2024-02-28T06:30:04;38.10;;;14.40;;
37299;SDS011;23184;51.902;12.836;2024-02-28T06:32:31;29.08;;;13.70;;
37299;SDS011;23184;51.902;12.836;2024-02-28T06:34:56;35.75;;;15.00;;
37299;SDS011;23184;51.902;12.836;2024-02-28T06:37:21;36.40;;;15.68;;
37299;SDS011;23184;51.902;12.836;2024-02-28T06:39:47;34.40;;;15.77;;
37299;SDS011;23184;51.902;12.836;2024-02-28T06:42:12;32.92;;;15.00;;
37299;SDS011;23184;51.902;12.836;2024-02-28T06:44:38;31.73;;;14.98;;
37299;SDS011;23184;51.902;12.836;2024-02-28T06:47:03;32.45;;;14.80;;
37299;SDS011;23184;51.902;12.836;2024-02-28T06:49:29;35.97;;;15.23;;
37299;SDS011;23184;51.902;12.836;2024-02-28T06:51:54;32.28;;;13.80;;
37299;SDS011;23184;51.902;12.836;2024-02-28T06:54:23;33.78;;;15.88;;
37299;SDS011;23184;51.902;12.836;2024-02-28T06:56:48;36.47;;;14.95;;
37299;SDS011;23184;51.902;12.836;2024-02-28T06:59:14;35.97;;;15.02;;
37299;SDS011;23184;51.902;12.836;2024-02-28T07:01:39;34.88;;;14.45;;
37299;SDS011;23184;51.902;12.836;2024-02-28T07:04:05;35.65;;;16.42;;
37299;SDS011;23184;51.902;12.836;2024-02-28T07:06:30;33.67;;;15.10;;
37299;SDS011;23184;51.902;12.836;2024-02-28T07:08:56;29.15;;;13.82;;
37299;SDS011;23184;51.902;12.836;2024-02-28T07:11:22;29.65;;;14.30;;
37299;SDS011;23184;51.902;12.836;2024-02-28T07:13:47;29.98;;;13.80;;
37299;SDS011;23184;51.902;12.836;2024-02-28T07:16:13;32.80;;;15.13;;
37299;SDS011;23184;51.902;12.836;2024-02-28T07:18:38;39.92;;;19.10;;
37299;SDS011;23184;51.902;12.836;2024-02-28T07:21:03;31.17;;;14.65;;
37299;SDS011;23184;51.902;12.836;2024-02-28T07:23:31;29.15;;;13.80;;
37299;SDS011;23184;51.902;12.836;2024-02-28T07:25:57;27.25;;;13.80;;
37299;SDS011;23184;51.902;12.836;2024-02-28T07:28:22;35.28;;;15.55;;
37299;SDS011;23184;51.902;12.836;2024-02-28T07:30:48;27.00;;;14.05;;
37299;SDS011;23184;51.902;12.836;2024-02-28T07:33:14;27.90;;;13.60;;
37299;SDS011;23184;51.902;12.836;2024-02-28T07:35:45;27.58;;;13.00;;
37299;SDS011;23184;51.902;12.836;2024-02-28T07:38:15;25.38;;;12.70;;
37299;SDS011;23184;51.902;12.836;2024-02-28T07:40:42;29.23;;;13.05;;
37299;SDS011;23184;51.902;12.836;2024-02-28T07:43:08;25.73;;;12.73;;
37299;SDS011;23184;51.902;12.836;2024-02-28T07:45:33;28.17;;;13.90;;
37299;SDS011;23184;51.902;12.836;2024-02-28T07:47:58;26.80;;;13.25;;
37299;SDS011;23184;51.902;12.836;2024-02-28T07:50:24;25.23;;;13.13;;
37299;SDS011;23184;51.902;12.836;2024-02-28T07:52:50;26.27;;;12.93;;
37299;SDS011;23184;51.902;12.836;2024-02-28T07:55:18;31.10;;;14.48;;
37299;SDS011;23184;51.902;12.836;2024-02-28T07:57:44;28.50;;;13.32;;
37299;SDS011;23184;51.902;12.836;2024-02-28T08:00:12;27.85;;;13.20;;
37299;SDS011;23184;51.902;12.836;2024-02-28T08:02:38;28.55;;;13.95;;
37299;SDS011;23184;51.902;12.836;2024-02-28T08:05:04;25.85;;;13.00;;
37299;SDS011;23184;51.902;12.836;2024-02-28T08:07:32;25.25;;;13.05;;
37299;SDS011;23184;51.902;12.836;2024-02-28T08:09:57;25.65;;;13.05;;
37299;SDS011;23184;51.902;12.836;2024-02-28T08:12:23;27.38;;;13.77;;
37299;SDS011;23184;51.902;12.836;2024-02-28T08:14:48;29.17;;;13.00;;
37299;SDS011;23184;51.902;12.836;2024-02-28T08:17:14;27.38;;;12.80;;
37299;SDS011;23184;51.902;12.836;2024-02-28T08:19:40;27.27;;;13.68;;
37299;SDS011;23184;51.902;12.836;2024-02-28T08:22:06;24.95;;;12.85;;
37299;SDS011;23184;51.902;12.836;2024-02-28T08:24:32;27.13;;;13.10;;
37299;SDS011;23184;51.902;12.836;2024-02-28T08:26:57;22.58;;;11.93;;
37299;SDS011;23184;51.902;12.836;2024-02-28T08:29:23;22.88;;;12.50;;
37299;SDS011;23184;51.902;12.836;2024-02-28T08:31:48;23.85;;;12.57;;
37299;SDS011;23184;51.902;12.836;2024-02-28T08:34:14;23.13;;;12.57;;
37299;SDS011;23184;51.902;12.836;2024-02-28T08:36:39;30.13;;;14.52;;
37299;SDS011;23184;51.902;12.836;2024-02-28T08:39:05;24.35;;;13.13;;
37299;SDS011;23184;51.902;12.836;2024-02-28T08:41:33;20.65;;;11.05;;
37299;SDS011;23184;51.902;12.836;2024-02-28T08:43:59;25.52;;;14.05;;
37299;SDS011;23184;51.902;12.836;2024-02-28T08:46:24;26.45;;;13.52;;
37299;SDS011;23184;51.902;12.836;2024-02-28T08:48:50;24.05;;;12.30;;
37299;SDS011;23184;51.902;12.836;2024-02-28T08:51:15;25.38;;;12.77;;
37299;SDS011;23184;51.902;12.836;2024-02-28T08:53:41;25.08;;;12.18;;
37299;SDS011;23184;51.902;12.836;2024-02-28T08:56:06;24.95;;;12.10;;
37299;SDS011;23184;51.902;12.836;2024-02-28T08:58:32;20.70;;;10.98;;
37299;SDS011;23184;51.902;12.836;2024-02-28T09:00:57;22.33;;;11.40;;
37299;SDS011;23184;51.902;12.836;2024-02-28T09:03:23;21.85;;;11.20;;
37299;SDS011;23184;51.902;12.836;2024-02-28T09:05:48;24.27;;;11.38;;
37299;SDS011;23184;51.902;12.836;2024-02-28T09:08:14;23.45;;;11.98;;
37299;SDS011;23184;51.902;12.836;2024-02-28T09:10:39;26.60;;;12.65;;
37299;SDS011;23184;51.902;12.836;2024-02-28T09:13:05;23.75;;;12.30;;
37299;SDS011;23184;51.902;12.836;2024-02-28T09:15:31;24.98;;;12.52;;
37299;SDS011;23184;51.902;12.836;2024-02-28T09:17:59;22.70;;;11.95;;
37299;SDS011;23184;51.902;12.836;2024-02-28T09:20:25;22.35;;;11.00;;
37299;SDS011;23184;51.902;12.836;2024-02-28T09:22:51;20.02;;;11.60;;
37299;SDS011;23184;51.902;12.836;2024-02-28T09:25:16;23.67;;;11.68;;
37299;SDS011;23184;51.902;12.836;2024-02-28T09:27:43;22.17;;;12.13;;
37299;SDS011;23184;51.902;12.836;2024-02-28T09:30:09;20.38;;;11.20;;
37299;SDS011;23184;51.902;12.836;2024-02-28T09:32:35;21.88;;;11.43;;
37299;SDS011;23184;51.902;12.836;2024-02-28T09:35:00;20.27;;;11.18;;
37299;SDS011;23184;51.902;12.836;2024-02-28T09:37:28;19.63;;;10.48;;
37299;SDS011;23184;51.902;12.836;2024-02-28T09:39:54;21.55;;;11.77;;
37299;SDS011;23184;51.902;12.836;2024-02-28T09:42:19;19.42;;;10.95;;
37299;SDS011;23184;51.902;12.836;2024-02-28T09:44:45;21.80;;;11.45;;
37299;SDS011;23184;51.902;12.836;2024-02-28T09:47:11;17.23;;;9.90;;
37299;SDS011;23184;51.902;12.836;2024-02-28T09:49:36;19.98;;;11.07;;
37299;SDS011;23184;51.902;12.836;2024-02-28T09:52:02;19.35;;;10.73;;
37299;SDS011;23184;51.902;12.836;2024-02-28T09:54:28;18.02;;;9.80;;
37299;SDS011;23184;51.902;12.836;2024-02-28T09:56:54;14.43;;;9.00;;
37299;SDS011;23184;51.902;12.836;2024-02-28T09:59:21;20.52;;;11.02;;
37299;SDS011;23184;51.902;12.836;2024-02-28T10:01:51;19.58;;;10.88;;
37299;SDS011;23184;51.902;12.836;2024-02-28T10:04:23;20.90;;;10.45;;
37299;SDS011;23184;51.902;12.836;2024-02-28T10:06:50;19.48;;;10.98;;
37299;SDS011;23184;51.902;12.836;2024-02-28T10:09:16;19.08;;;11.13;;
37299;SDS011;23184;51.902;12.836;2024-02-28T10:11:41;18.95;;;11.23;;
37299;SDS011;23184;51.902;12.836;2024-02-28T10:14:09;20.10;;;10.48;;
37299;SDS011;23184;51.902;12.836;2024-02-28T10:16:34;21.15;;;10.95;;
37299;SDS011;23184;51.902;12.836;2024-02-28T10:19:00;19.42;;;11.15;;
37299;SDS011;23184;51.902;12.836;2024-02-28T10:21:25;18.13;;;10.50;;
37299;SDS011;23184;51.902;12.836;2024-02-28T10:23:51;20.13;;;10.48;;
37299;SDS011;23184;51.902;12.836;2024-02-28T10:26:17;17.13;;;10.38;;
37299;SDS011;23184;51.902;12.836;2024-02-28T10:28:42;17.70;;;10.52;;
37299;SDS011;23184;51.902;12.836;2024-02-28T10:31:11;18.25;;;10.15;;
37299;SDS011;23184;51.902;12.836;2024-02-28T10:33:37;17.67;;;10.15;;
37299;SDS011;23184;51.902;12.836;2024-02-28T10:36:03;18.65;;;10.35;;
37299;SDS011;23184;51.902;12.836;2024-02-28T10:38:30;18.27;;;10.13;;
37299;SDS011;23184;51.902;12.836;2024-02-28T10:40:58;17.65;;;10.73;;
37299;SDS011;23184;51.902;12.836;2024-02-28T10:43:27;16.30;;;9.88;;
37299;SDS011;23184;51.902;12.836;2024-02-28T10:45:59;15.38;;;9.70;;
37299;SDS011;23184;51.902;12.836;2024-02-28T10:48:25;17.85;;;10.57;;
37299;SDS011;23184;51.902;12.836;2024-02-28T10:50:51;16.20;;;9.68;;
37299;SDS011;23184;51.902;12.836;2024-02-28T10:53:20;18.23;;;10.88;;
37299;SDS011;23184;51.902;12.836;2024-02-28T10:55:47;17.38;;;9.85;;
37299;SDS011;23184;51.902;12.836;2024-02-28T10:58:14;15.25;;;10.93;;
37299;SDS011;23184;51.902;12.836;2024-02-28T11:00:40;18.60;;;10.77;;
37299;SDS011;23184;51.902;12.836;2024-02-28T11:03:08;14.68;;;9.70;;
37299;SDS011;23184;51.902;12.836;2024-02-28T11:05:39;13.57;;;8.93;;
37299;SDS011;23184;51.902;12.836;2024-02-28T11:08:19;13.88;;;9.02;;
37299;SDS011;23184;51.902;12.836;2024-02-28T11:10:56;15.90;;;9.40;;
37299;SDS011;23184;51.902;12.836;2024-02-28T11:13:31;14.13;;;8.85;;
37299;SDS011;23184;51.902;12.836;2024-02-28T11:16:06;14.75;;;9.40;;
37299;SDS011;23184;51.902;12.836;2024-02-28T11:18:33;17.63;;;10.27;;
37299;SDS011;23184;51.902;12.836;2024-02-28T11:20:58;17.77;;;9.43;;
37299;SDS011;23184;51.902;12.836;2024-02-28T11:23:24;16.08;;;9.48;;
37299;SDS011;23184;51.902;12.836;2024-02-28T11:25:49;18.13;;;9.90;;
37299;SDS011;23184;51.902;12.836;2024-02-28T11:28:15;16.70;;;10.07;;
37299;SDS011;23184;51.902;12.836;2024-02-28T11:30:41;15.00;;;9.10;;
37299;SDS011;23184;51.902;12.836;2024-02-28T11:33:06;16.65;;;9.20;;
37299;SDS011;23184;51.902;12.836;2024-02-28T11:35:34;15.05;;;9.13;;
37299;SDS011;23184;51.902;12.836;2024-02-28T11:37:59;18.25;;;9.25;;
37299;SDS011;23184;51.902;12.836;2024-02-28T11:40:25;15.95;;;9.18;;
37299;SDS011;23184;51.902;12.836;2024-02-28T11:42:54;17.08;;;9.50;;
37299;SDS011;23184;51.902;12.836;2024-02-28T11:45:20;14.82;;;9.00;;
37299;SDS011;23184;51.902;12.836;2024-02-28T11:47:46;17.30;;;9.80;;
37299;SDS011;23184;51.902;12.836;2024-02-28T11:50:12;14.13;;;8.65;;
37299;SDS011;23184;51.902;12.836;2024-02-28T11:52:39;16.10;;;9.00;;
37299;SDS011;23184;51.902;12.836;2024-02-28T11:55:05;16.80;;;10.02;;
37299;SDS011;23184;51.902;12.836;2024-02-28T11:57:30;15.23;;;9.07;;
37299;SDS011;23184;51.902;12.836;2024-02-28T12:00:01;13.95;;;8.38;;
37299;SDS011;23184;51.902;12.836;2024-02-28T12:02:29;16.75;;;8.73;;
37299;SDS011;23184;51.902;12.836;2024-02-28T12:04:55;21.27;;;12.38;;
37299;SDS011;23184;51.902;12.836;2024-02-28T12:07:26;15.18;;;8.82;;
37299;SDS011;23184;51.902;12.836;2024-02-28T12:09:53;17.75;;;9.77;;
37299;SDS011;23184;51.902;12.836;2024-02-28T12:12:19;13.90;;;7.88;;
37299;SDS011;23184;51.902;12.836;2024-02-28T12:14:45;15.25;;;8.93;;
37299;SDS011;23184;51.902;12.836;2024-02-28T12:17:11;14.32;;;8.80;;
37299;SDS011;23184;51.902;12.836;2024-02-28T12:19:38;13.35;;;7.90;;
37299;SDS011;23184;51.902;12.836;2024-02-28T12:22:04;12.75;;;8.32;;
37299;SDS011;23184;51.902;12.836;2024-02-28T12:24:29;13.90;;;8.45;;
37299;SDS011;23184;51.902;12.836;2024-02-28T12:26:55;12.82;;;8.25;;
37299;SDS011;23184;51.902;12.836;2024-02-28T12:29:20;15.75;;;9.38;;
37299;SDS011;23184;51.902;12.836;2024-02-28T12:31:46;14.27;;;8.55;;
37299;SDS011;23184;51.902;12.836;2024-02-28T12:34:11;14.93;;;9.60;;
37299;SDS011;23184;51.902;12.836;2024-02-28T12:36:40;13.98;;;8.73;;
37299;SDS011;23184;51.902;12.836;2024-02-28T12:39:06;15.23;;;9.57;;
37299;SDS011;23184;51.902;12.836;2024-02-28T12:41:32;17.65;;;10.70;;
37299;SDS011;23184;51.902;12.836;2024-02-28T12:43:57;18.95;;;10.75;;
37299;SDS011;23184;51.902;12.836;2024-02-28T12:46:23;20.08;;;11.77;;
37299;SDS011;23184;51.902;12.836;2024-02-28T12:48:48;17.67;;;10.23;;
37299;SDS011;23184;51.902;12.836;2024-02-28T12:51:34;16.90;;;10.27;;
37299;SDS011;23184;51.902;12.836;2024-02-28T12:54:10;16.08;;;10.50;;
37299;SDS011;23184;51.902;12.836;2024-02-28T12:56:40;18.38;;;10.98;;
37299;SDS011;23184;51.902;12.836;2024-02-28T12:59:09;16.30;;;10.45;;
37299;SDS011;23184;51.902;12.836;2024-02-28T13:01:35;15.25;;;8.80;;
37299;SDS011;23184;51.902;12.836;2024-02-28T13:04:00;16.80;;;10.50;;
37299;SDS011;23184;51.902;12.836;2024-02-28T13:06:27;16.70;;;10.27;;
37299;SDS011;23184;51.902;12.836;2024-02-28T13:08:53;18.33;;;10.60;;
37299;SDS011;23184;51.902;12.836;2024-02-28T13:11:19;16.02;;;11.05;;
37299;SDS011;23184;51.902;12.836;2024-02-28T13:13:46;16.65;;;10.20;;
37299;SDS011;23184;51.902;12.836;2024-02-28T13:16:12;16.52;;;10.35;;
37299;SDS011;23184;51.902;12.836;2024-02-28T13:18:38;14.93;;;9.75;;
37299;SDS011;23184;51.902;12.836;2024-02-28T13:21:03;14.65;;;9.90;;
37299;SDS011;23184;51.902;12.836;2024-02-28T13:23:29;14.65;;;10.23;;
37299;SDS011;23184;51.902;12.836;2024-02-28T13:25:56;15.80;;;10.48;;
37299;SDS011;23184;51.902;12.836;2024-02-28T13:28:21;16.25;;;9.90;;
37299;SDS011;23184;51.902;12.836;2024-02-28T13:30:54;17.80;;;12.57;;
37299;SDS011;23184;51.902;12.836;2024-02-28T13:33:26;18.20;;;11.15;;
37299;SDS011;23184;51.902;12.836;2024-02-28T13:35:52;18.25;;;12.18;;
37299;SDS011;23184;51.902;12.836;2024-02-28T13:38:18;15.48;;;10.73;;
37299;SDS011;23184;51.902;12.836;2024-02-28T13:40:44;14.40;;;10.50;;
37299;SDS011;23184;51.902;12.836;2024-02-28T13:43:11;20.58;;;13.50;;
37299;SDS011;23184;51.902;12.836;2024-02-28T13:45:39;16.83;;;12.60;;
37299;SDS011;23184;51.902;12.836;2024-02-28T13:48:14;18.40;;;12.77;;
37299;SDS011;23184;51.902;12.836;2024-02-28T13:50:42;17.20;;;12.63;;
37299;SDS011;23184;51.902;12.836;2024-02-28T13:53:08;16.30;;;11.88;;
37299;SDS011;23184;51.902;12.836;2024-02-28T13:55:33;17.00;;;11.82;;
37299;SDS011;23184;51.902;12.836;2024-02-28T13:57:59;16.50;;;12.68;;
37299;SDS011;23184;51.902;12.836;2024-02-28T14:00:24;16.92;;;12.95;;
37299;SDS011;23184;51.902;12.836;2024-02-28T14:02:50;17.95;;;13.27;;
37299;SDS011;23184;51.902;12.836;2024-02-28T14:05:15;19.13;;;13.90;;